sensor_id;sensor_type;location;lat;lon;timestamp;temperature;humidity
64226;DHT22;50545;56.064;26.178;2022-07-25T00:02:16;15.60;99.90
64226;DHT22;50545;56.064;26.178;2022-07-25T00:04:43;15.60;99.90
64226;DHT22;50545;56.064;26.178;2022-07-25T00:07:11;15.60;99.90
64226;DHT22;50545;56.064;26.178;2022-07-25T00:09:38;15.50;99.90
64226;DHT22;50545;56.064;26.178;2022-07-25T00:12:06;15.50;99.90
64226;DHT22;50545;56.064;26.178;2022-07-25T00:14:36;15.50;99.90
64226;DHT22;50545;56.064;26.178;2022-07-25T00:17:04;15.50;99.90
64226;DHT22;50545;56.064;26.178;2022-07-25T00:19:31;15.50;99.90
64226;DHT22;50545;56.064;26.178;2022-07-25T00:21:58;15.50;99.90
64226;DHT22;50545;56.064;26.178;2022-07-25T00:24:26;15.40;99.90
64226;DHT22;50545;56.064;26.178;2022-07-25T00:26:53;15.40;99.90
64226;DHT22;50545;56.064;26.178;2022-07-25T00:29:20;15.40;99.90
64226;DHT22;50545;56.064;26.178;2022-07-25T00:31:48;15.40;99.90
64226;DHT22;50545;56.064;26.178;2022-07-25T00:34:15;15.40;99.90
64226;DHT22;50545;56.064;26.178;2022-07-25T00:36:42;15.40;99.90
64226;DHT22;50545;56.064;26.178;2022-07-25T00:39:10;15.40;99.90
64226;DHT22;50545;56.064;26.178;2022-07-25T00:41:37;15.40;99.90
64226;DHT22;50545;56.064;26.178;2022-07-25T00:44:05;15.30;99.90
64226;DHT22;50545;56.064;26.178;2022-07-25T00:46:33;15.30;99.90
64226;DHT22;50545;56.064;26.178;2022-07-25T00:49:04;15.30;99.90
64226;DHT22;50545;56.064;26.178;2022-07-25T00:51:31;15.30;99.90
64226;DHT22;50545;56.064;26.178;2022-07-25T00:53:58;15.30;99.90
64226;DHT22;50545;56.064;26.178;2022-07-25T00:56:26;15.20;99.90
64226;DHT22;50545;56.064;26.178;2022-07-25T00:58:54;15.20;99.90
64226;DHT22;50545;56.064;26.178;2022-07-25T01:01:21;15.10;99.90
64226;DHT22;50545;56.064;26.178;2022-07-25T01:03:49;15.10;99.90
64226;DHT22;50545;56.064;26.178;2022-07-25T01:06:16;15.10;99.90
64226;DHT22;50545;56.064;26.178;2022-07-25T01:08:44;15.00;99.90
64226;DHT22;50545;56.064;26.178;2022-07-25T01:11:12;15.00;99.90
64226;DHT22;50545;56.064;26.178;2022-07-25T01:13:39;15.00;99.90
64226;DHT22;50545;56.064;26.178;2022-07-25T01:16:07;14.90;99.90
64226;DHT22;50545;56.064;26.178;2022-07-25T01:18:35;14.90;99.90
64226;DHT22;50545;56.064;26.178;2022-07-25T01:21:03;14.90;99.90
64226;DHT22;50545;56.064;26.178;2022-07-25T01:23:30;14.80;99.90
64226;DHT22;50545;56.064;26.178;2022-07-25T01:25:58;14.80;99.90
64226;DHT22;50545;56.064;26.178;2022-07-25T01:28:26;14.80;99.90
64226;DHT22;50545;56.064;26.178;2022-07-25T01:30:53;14.80;99.90
64226;DHT22;50545;56.064;26.178;2022-07-25T01:33:21;14.80;99.90
64226;DHT22;50545;56.064;26.178;2022-07-25T01:35:49;14.80;99.90
64226;DHT22;50545;56.064;26.178;2022-07-25T01:38:17;14.80;99.90
64226;DHT22;50545;56.064;26.178;2022-07-25T01:40:45;14.80;99.90
64226;DHT22;50545;56.064;26.178;2022-07-25T01:43:13;14.80;99.90
64226;DHT22;50545;56.064;26.178;2022-07-25T01:45:40;14.70;99.90
64226;DHT22;50545;56.064;26.178;2022-07-25T01:48:07;14.80;99.90
64226;DHT22;50545;56.064;26.178;2022-07-25T01:50:35;14.70;99.90
64226;DHT22;50545;56.064;26.178;2022-07-25T01:53:03;14.70;99.90
64226;DHT22;50545;56.064;26.178;2022-07-25T01:55:30;14.70;99.90
64226;DHT22;50545;56.064;26.178;2022-07-25T01:57:58;14.70;99.90
64226;DHT22;50545;56.064;26.178;2022-07-25T02:00:25;14.70;99.90
64226;DHT22;50545;56.064;26.178;2022-07-25T02:02:52;14.70;99.90
64226;DHT22;50545;56.064;26.178;2022-07-25T02:05:40;14.70;99.90
64226;DHT22;50545;56.064;26.178;2022-07-25T02:08:08;14.70;99.90
64226;DHT22;50545;56.064;26.178;2022-07-25T02:10:37;14.70;99.90
64226;DHT22;50545;56.064;26.178;2022-07-25T02:13:04;14.70;99.90
64226;DHT22;50545;56.064;26.178;2022-07-25T02:15:32;14.70;99.90
64226;DHT22;50545;56.064;26.178;2022-07-25T02:17:59;14.60;99.90
64226;DHT22;50545;56.064;26.178;2022-07-25T02:20:26;14.70;99.90
64226;DHT22;50545;56.064;26.178;2022-07-25T02:22:54;14.60;99.90
64226;DHT22;50545;56.064;26.178;2022-07-25T02:25:21;14.60;99.90
64226;DHT22;50545;56.064;26.178;2022-07-25T02:27:48;14.60;99.90
64226;DHT22;50545;56.064;26.178;2022-07-25T02:30:16;14.60;99.90
64226;DHT22;50545;56.064;26.178;2022-07-25T02:32:43;14.60;99.90
64226;DHT22;50545;56.064;26.178;2022-07-25T02:35:11;14.50;99.90
64226;DHT22;50545;56.064;26.178;2022-07-25T02:37:39;14.50;99.90
64226;DHT22;50545;56.064;26.178;2022-07-25T02:40:07;14.40;99.90
64226;DHT22;50545;56.064;26.178;2022-07-25T02:42:35;14.30;99.90
64226;DHT22;50545;56.064;26.178;2022-07-25T02:45:02;14.30;99.90
64226;DHT22;50545;56.064;26.178;2022-07-25T02:47:30;14.20;99.90
64226;DHT22;50545;56.064;26.178;2022-07-25T02:49:57;14.20;99.90
64226;DHT22;50545;56.064;26.178;2022-07-25T02:52:24;14.10;99.90
64226;DHT22;50545;56.064;26.178;2022-07-25T02:54:52;14.10;99.90
64226;DHT22;50545;56.064;26.178;2022-07-25T02:57:19;14.00;99.90
64226;DHT22;50545;56.064;26.178;2022-07-25T02:59:46;13.90;99.90
64226;DHT22;50545;56.064;26.178;2022-07-25T03:02:14;13.90;99.90
64226;DHT22;50545;56.064;26.178;2022-07-25T03:04:41;13.90;99.90
64226;DHT22;50545;56.064;26.178;2022-07-25T03:07:08;13.80;99.90
64226;DHT22;50545;56.064;26.178;2022-07-25T03:09:36;13.70;99.90
64226;DHT22;50545;56.064;26.178;2022-07-25T03:12:03;13.70;99.90
64226;DHT22;50545;56.064;26.178;2022-07-25T03:14:31;13.60;99.90
64226;DHT22;50545;56.064;26.178;2022-07-25T03:16:58;13.60;99.90
64226;DHT22;50545;56.064;26.178;2022-07-25T03:19:26;13.60;99.90
64226;DHT22;50545;56.064;26.178;2022-07-25T03:21:53;13.50;99.90
64226;DHT22;50545;56.064;26.178;2022-07-25T03:24:20;13.50;99.90
64226;DHT22;50545;56.064;26.178;2022-07-25T03:26:48;13.50;99.90
64226;DHT22;50545;56.064;26.178;2022-07-25T03:29:15;13.50;99.90
64226;DHT22;50545;56.064;26.178;2022-07-25T03:31:42;13.50;99.90
64226;DHT22;50545;56.064;26.178;2022-07-25T03:34:10;13.60;99.90
64226;DHT22;50545;56.064;26.178;2022-07-25T03:36:37;13.70;99.90
64226;DHT22;50545;56.064;26.178;2022-07-25T03:39:05;13.80;99.90
64226;DHT22;50545;56.064;26.178;2022-07-25T03:41:32;13.90;99.90
64226;DHT22;50545;56.064;26.178;2022-07-25T03:43:59;14.00;99.90
64226;DHT22;50545;56.064;26.178;2022-07-25T03:46:27;14.20;99.90
64226;DHT22;50545;56.064;26.178;2022-07-25T03:48:54;14.30;99.90
64226;DHT22;50545;56.064;26.178;2022-07-25T03:51:22;14.40;99.90
64226;DHT22;50545;56.064;26.178;2022-07-25T03:53:49;14.50;99.90
64226;DHT22;50545;56.064;26.178;2022-07-25T03:59:12;14.60;99.90
64226;DHT22;50545;56.064;26.178;2022-07-25T04:01:40;14.60;99.90
64226;DHT22;50545;56.064;26.178;2022-07-25T04:04:07;14.60;99.90
64226;DHT22;50545;56.064;26.178;2022-07-25T04:06:36;14.60;99.90
64226;DHT22;50545;56.064;26.178;2022-07-25T04:09:05;14.60;99.90
64226;DHT22;50545;56.064;26.178;2022-07-25T04:11:32;14.60;99.90
64226;DHT22;50545;56.064;26.178;2022-07-25T04:14:02;14.50;99.90
64226;DHT22;50545;56.064;26.178;2022-07-25T04:16:30;14.50;99.90
64226;DHT22;50545;56.064;26.178;2022-07-25T04:18:57;14.50;99.90
64226;DHT22;50545;56.064;26.178;2022-07-25T04:21:26;14.50;99.90
64226;DHT22;50545;56.064;26.178;2022-07-25T04:23:54;14.50;99.90
64226;DHT22;50545;56.064;26.178;2022-07-25T04:26:21;14.60;99.90
64226;DHT22;50545;56.064;26.178;2022-07-25T04:28:48;14.60;99.90
64226;DHT22;50545;56.064;26.178;2022-07-25T04:31:15;14.70;99.90
64226;DHT22;50545;56.064;26.178;2022-07-25T04:33:43;14.80;99.90
64226;DHT22;50545;56.064;26.178;2022-07-25T04:36:11;14.90;99.90
64226;DHT22;50545;56.064;26.178;2022-07-25T04:38:38;15.00;99.90
64226;DHT22;50545;56.064;26.178;2022-07-25T04:41:06;15.10;99.90
64226;DHT22;50545;56.064;26.178;2022-07-25T04:43:33;15.30;99.90
64226;DHT22;50545;56.064;26.178;2022-07-25T04:46:00;15.40;99.90
64226;DHT22;50545;56.064;26.178;2022-07-25T04:48:28;15.50;99.90
64226;DHT22;50545;56.064;26.178;2022-07-25T04:50:55;15.50;99.90
64226;DHT22;50545;56.064;26.178;2022-07-25T04:53:23;15.60;99.90
64226;DHT22;50545;56.064;26.178;2022-07-25T04:55:50;15.70;99.90
64226;DHT22;50545;56.064;26.178;2022-07-25T04:58:18;15.70;99.90
64226;DHT22;50545;56.064;26.178;2022-07-25T05:00:45;15.80;99.90
64226;DHT22;50545;56.064;26.178;2022-07-25T05:03:13;15.80;99.90
64226;DHT22;50545;56.064;26.178;2022-07-25T05:05:40;15.90;99.90
64226;DHT22;50545;56.064;26.178;2022-07-25T05:08:07;15.90;99.90
64226;DHT22;50545;56.064;26.178;2022-07-25T05:10:35;15.90;99.90
64226;DHT22;50545;56.064;26.178;2022-07-25T05:13:02;16.00;99.90
64226;DHT22;50545;56.064;26.178;2022-07-25T05:15:29;16.00;99.90
64226;DHT22;50545;56.064;26.178;2022-07-25T05:17:57;16.00;99.90
64226;DHT22;50545;56.064;26.178;2022-07-25T05:20:24;16.00;99.90
64226;DHT22;50545;56.064;26.178;2022-07-25T05:22:51;16.00;99.90
64226;DHT22;50545;56.064;26.178;2022-07-25T05:25:19;16.00;99.90
64226;DHT22;50545;56.064;26.178;2022-07-25T05:27:46;15.90;99.90
64226;DHT22;50545;56.064;26.178;2022-07-25T05:30:13;15.90;99.90
64226;DHT22;50545;56.064;26.178;2022-07-25T05:32:41;15.90;99.90
64226;DHT22;50545;56.064;26.178;2022-07-25T05:35:09;15.90;99.90
64226;DHT22;50545;56.064;26.178;2022-07-25T05:37:37;15.90;99.90
64226;DHT22;50545;56.064;26.178;2022-07-25T05:40:05;16.00;99.90
64226;DHT22;50545;56.064;26.178;2022-07-25T05:42:32;16.00;99.90
64226;DHT22;50545;56.064;26.178;2022-07-25T05:45:00;16.10;99.90
64226;DHT22;50545;56.064;26.178;2022-07-25T05:47:28;16.00;99.90
64226;DHT22;50545;56.064;26.178;2022-07-25T05:49:55;16.00;99.90
64226;DHT22;50545;56.064;26.178;2022-07-25T05:52:22;16.00;99.90
64226;DHT22;50545;56.064;26.178;2022-07-25T05:54:50;16.00;99.90
64226;DHT22;50545;56.064;26.178;2022-07-25T05:57:17;16.10;99.90
64226;DHT22;50545;56.064;26.178;2022-07-25T05:59:44;16.10;99.90
64226;DHT22;50545;56.064;26.178;2022-07-25T06:02:12;16.20;99.90
64226;DHT22;50545;56.064;26.178;2022-07-25T06:04:40;16.30;99.90
64226;DHT22;50545;56.064;26.178;2022-07-25T06:07:07;16.30;99.90
64226;DHT22;50545;56.064;26.178;2022-07-25T06:09:37;16.30;99.90
64226;DHT22;50545;56.064;26.178;2022-07-25T06:12:05;16.40;99.90
64226;DHT22;50545;56.064;26.178;2022-07-25T06:14:33;16.50;99.90
64226;DHT22;50545;56.064;26.178;2022-07-25T06:17:01;16.60;99.90
64226;DHT22;50545;56.064;26.178;2022-07-25T06:19:28;16.60;99.90
64226;DHT22;50545;56.064;26.178;2022-07-25T06:21:56;16.70;99.90
64226;DHT22;50545;56.064;26.178;2022-07-25T06:24:23;16.70;99.90
64226;DHT22;50545;56.064;26.178;2022-07-25T06:26:50;16.80;99.90
64226;DHT22;50545;56.064;26.178;2022-07-25T06:29:17;16.80;99.90
64226;DHT22;50545;56.064;26.178;2022-07-25T06:31:45;16.90;99.90
64226;DHT22;50545;56.064;26.178;2022-07-25T06:34:13;16.90;99.90
64226;DHT22;50545;56.064;26.178;2022-07-25T06:36:40;16.90;99.90
64226;DHT22;50545;56.064;26.178;2022-07-25T06:39:08;16.90;99.90
64226;DHT22;50545;56.064;26.178;2022-07-25T06:41:35;16.90;99.90
64226;DHT22;50545;56.064;26.178;2022-07-25T06:44:03;17.00;99.90
64226;DHT22;50545;56.064;26.178;2022-07-25T06:46:31;17.10;99.90
64226;DHT22;50545;56.064;26.178;2022-07-25T06:48:59;17.20;99.90
64226;DHT22;50545;56.064;26.178;2022-07-25T06:51:26;17.20;99.90
64226;DHT22;50545;56.064;26.178;2022-07-25T06:53:53;17.40;99.90
64226;DHT22;50545;56.064;26.178;2022-07-25T06:56:21;17.50;99.90
64226;DHT22;50545;56.064;26.178;2022-07-25T06:58:48;17.60;99.90
64226;DHT22;50545;56.064;26.178;2022-07-25T07:01:16;17.70;99.90
64226;DHT22;50545;56.064;26.178;2022-07-25T07:03:43;17.60;99.90
64226;DHT22;50545;56.064;26.178;2022-07-25T07:06:10;17.70;99.90
64226;DHT22;50545;56.064;26.178;2022-07-25T07:08:38;17.70;99.90
64226;DHT22;50545;56.064;26.178;2022-07-25T07:11:06;17.70;99.90
64226;DHT22;50545;56.064;26.178;2022-07-25T07:13:34;17.70;99.90
64226;DHT22;50545;56.064;26.178;2022-07-25T07:16:01;17.80;99.90
64226;DHT22;50545;56.064;26.178;2022-07-25T07:18:29;17.80;99.90
64226;DHT22;50545;56.064;26.178;2022-07-25T07:20:56;18.00;99.90
64226;DHT22;50545;56.064;26.178;2022-07-25T07:23:24;18.00;99.90
64226;DHT22;50545;56.064;26.178;2022-07-25T07:25:54;18.10;99.90
64226;DHT22;50545;56.064;26.178;2022-07-25T07:28:22;18.10;99.90
64226;DHT22;50545;56.064;26.178;2022-07-25T07:30:49;18.00;99.90
64226;DHT22;50545;56.064;26.178;2022-07-25T07:33:36;18.10;99.90
64226;DHT22;50545;56.064;26.178;2022-07-25T07:36:04;18.10;99.90
64226;DHT22;50545;56.064;26.178;2022-07-25T07:38:31;18.10;99.90
64226;DHT22;50545;56.064;26.178;2022-07-25T07:40:58;18.20;99.90
64226;DHT22;50545;56.064;26.178;2022-07-25T07:43:25;18.20;99.90
64226;DHT22;50545;56.064;26.178;2022-07-25T07:45:58;18.30;99.90
64226;DHT22;50545;56.064;26.178;2022-07-25T07:48:31;18.50;99.90
64226;DHT22;50545;56.064;26.178;2022-07-25T07:50:59;18.50;99.90
64226;DHT22;50545;56.064;26.178;2022-07-25T07:53:27;18.60;99.90
64226;DHT22;50545;56.064;26.178;2022-07-25T07:56:14;18.60;99.90
64226;DHT22;50545;56.064;26.178;2022-07-25T07:58:42;18.60;99.90
64226;DHT22;50545;56.064;26.178;2022-07-25T08:01:09;18.80;99.90
64226;DHT22;50545;56.064;26.178;2022-07-25T08:03:36;18.70;99.90
64226;DHT22;50545;56.064;26.178;2022-07-25T08:06:04;18.80;99.90
64226;DHT22;50545;56.064;26.178;2022-07-25T08:08:31;18.90;97.70
64226;DHT22;50545;56.064;26.178;2022-07-25T08:10:58;19.10;99.00
64226;DHT22;50545;56.064;26.178;2022-07-25T08:13:28;19.30;95.40
64226;DHT22;50545;56.064;26.178;2022-07-25T08:15:58;19.30;96.40
64226;DHT22;50545;56.064;26.178;2022-07-25T08:18:27;19.40;99.00
64226;DHT22;50545;56.064;26.178;2022-07-25T08:20:56;19.50;91.80
64226;DHT22;50545;56.064;26.178;2022-07-25T08:23:23;19.70;93.30
64226;DHT22;50545;56.064;26.178;2022-07-25T08:25:57;19.90;86.40
64226;DHT22;50545;56.064;26.178;2022-07-25T08:28:25;20.00;82.40
64226;DHT22;50545;56.064;26.178;2022-07-25T08:30:53;20.10;89.60
64226;DHT22;50545;56.064;26.178;2022-07-25T08:33:20;20.20;92.60
64226;DHT22;50545;56.064;26.178;2022-07-25T08:35:49;20.30;82.40
64226;DHT22;50545;56.064;26.178;2022-07-25T08:38:22;20.40;90.30
64226;DHT22;50545;56.064;26.178;2022-07-25T08:40:50;20.60;93.20
64226;DHT22;50545;56.064;26.178;2022-07-25T08:43:18;20.70;77.30
64226;DHT22;50545;56.064;26.178;2022-07-25T08:45:50;20.70;75.30
64226;DHT22;50545;56.064;26.178;2022-07-25T08:48:21;20.80;76.40
64226;DHT22;50545;56.064;26.178;2022-07-25T08:50:49;20.90;83.10
64226;DHT22;50545;56.064;26.178;2022-07-25T08:53:18;21.00;72.50
64226;DHT22;50545;56.064;26.178;2022-07-25T08:56:04;21.10;73.90
64226;DHT22;50545;56.064;26.178;2022-07-25T08:58:39;21.20;70.90
64226;DHT22;50545;56.064;26.178;2022-07-25T09:01:10;21.30;74.40
64226;DHT22;50545;56.064;26.178;2022-07-25T09:03:37;21.40;69.30
64226;DHT22;50545;56.064;26.178;2022-07-25T09:06:18;21.40;69.80
64226;DHT22;50545;56.064;26.178;2022-07-25T09:08:54;21.50;69.30
64226;DHT22;50545;56.064;26.178;2022-07-25T09:11:36;21.60;71.60
64226;DHT22;50545;56.064;26.178;2022-07-25T09:14:06;21.80;67.60
64226;DHT22;50545;56.064;26.178;2022-07-25T09:16:37;21.90;67.80
64226;DHT22;50545;56.064;26.178;2022-07-25T09:21:38;21.60;63.00
64226;DHT22;50545;56.064;26.178;2022-07-25T09:24:11;21.60;62.50
64226;DHT22;50545;56.064;26.178;2022-07-25T09:26:57;21.50;61.40
64226;DHT22;50545;56.064;26.178;2022-07-25T09:29:29;21.50;63.10
64226;DHT22;50545;56.064;26.178;2022-07-25T09:31:58;21.70;65.40
64226;DHT22;50545;56.064;26.178;2022-07-25T09:34:41;21.90;63.10
64226;DHT22;50545;56.064;26.178;2022-07-25T09:37:10;22.00;63.70
64226;DHT22;50545;56.064;26.178;2022-07-25T09:39:45;22.20;64.00
64226;DHT22;50545;56.064;26.178;2022-07-25T09:45:10;22.30;60.90
64226;DHT22;50545;56.064;26.178;2022-07-25T09:47:59;22.30;59.80
64226;DHT22;50545;56.064;26.178;2022-07-25T09:50:28;22.20;64.80
64226;DHT22;50545;56.064;26.178;2022-07-25T09:52:57;22.50;62.60
64226;DHT22;50545;56.064;26.178;2022-07-25T09:55:26;22.80;65.50
64226;DHT22;50545;56.064;26.178;2022-07-25T09:57:53;23.00;61.90
64226;DHT22;50545;56.064;26.178;2022-07-25T10:00:26;23.00;63.20
64226;DHT22;50545;56.064;26.178;2022-07-25T10:03:17;23.10;59.70
64226;DHT22;50545;56.064;26.178;2022-07-25T10:08:40;22.90;60.00
64226;DHT22;50545;56.064;26.178;2022-07-25T10:11:24;23.00;59.40
64226;DHT22;50545;56.064;26.178;2022-07-25T10:13:52;22.80;60.70
64226;DHT22;50545;56.064;26.178;2022-07-25T10:16:22;22.70;60.30
64226;DHT22;50545;56.064;26.178;2022-07-25T10:18:54;22.70;58.40
64226;DHT22;50545;56.064;26.178;2022-07-25T10:21:24;22.80;60.00
64226;DHT22;50545;56.064;26.178;2022-07-25T10:24:05;22.90;59.40
64226;DHT22;50545;56.064;26.178;2022-07-25T10:26:38;23.00;59.50
64226;DHT22;50545;56.064;26.178;2022-07-25T10:29:10;23.10;57.10
64226;DHT22;50545;56.064;26.178;2022-07-25T10:31:41;23.30;59.60
64226;DHT22;50545;56.064;26.178;2022-07-25T10:34:15;23.40;60.50
64226;DHT22;50545;56.064;26.178;2022-07-25T10:36:54;23.60;61.60
64226;DHT22;50545;56.064;26.178;2022-07-25T10:39:23;23.90;60.00
64226;DHT22;50545;56.064;26.178;2022-07-25T10:42:04;23.90;59.60
64226;DHT22;50545;56.064;26.178;2022-07-25T10:44:47;24.00;56.90
64226;DHT22;50545;56.064;26.178;2022-07-25T10:47:16;23.90;57.80
64226;DHT22;50545;56.064;26.178;2022-07-25T10:49:45;24.10;62.20
64226;DHT22;50545;56.064;26.178;2022-07-25T10:52:40;24.20;56.50
64226;DHT22;50545;56.064;26.178;2022-07-25T10:55:08;24.50;53.80
64226;DHT22;50545;56.064;26.178;2022-07-25T10:57:36;24.50;56.00
64226;DHT22;50545;56.064;26.178;2022-07-25T11:00:24;24.20;54.70
64226;DHT22;50545;56.064;26.178;2022-07-25T11:02:56;24.00;54.20
64226;DHT22;50545;56.064;26.178;2022-07-25T11:05:23;24.00;56.90
64226;DHT22;50545;56.064;26.178;2022-07-25T11:07:52;24.10;55.90
64226;DHT22;50545;56.064;26.178;2022-07-25T11:10:39;24.20;56.80
64226;DHT22;50545;56.064;26.178;2022-07-25T11:13:13;24.50;59.20
64226;DHT22;50545;56.064;26.178;2022-07-25T11:15:41;24.80;57.10
64226;DHT22;50545;56.064;26.178;2022-07-25T11:18:08;24.80;57.50
64226;DHT22;50545;56.064;26.178;2022-07-25T11:20:35;24.90;52.10
64226;DHT22;50545;56.064;26.178;2022-07-25T11:23:03;24.80;53.10
64226;DHT22;50545;56.064;26.178;2022-07-25T11:25:30;24.80;55.60
64226;DHT22;50545;56.064;26.178;2022-07-25T11:27:59;24.90;51.70
64226;DHT22;50545;56.064;26.178;2022-07-25T11:30:26;25.10;58.50
64226;DHT22;50545;56.064;26.178;2022-07-25T11:32:58;25.50;56.30
64226;DHT22;50545;56.064;26.178;2022-07-25T11:35:31;24.80;49.30
64226;DHT22;50545;56.064;26.178;2022-07-25T11:38:00;23.90;50.60
64226;DHT22;50545;56.064;26.178;2022-07-25T11:40:28;23.50;55.40
64226;DHT22;50545;56.064;26.178;2022-07-25T11:42:57;23.60;54.60
64226;DHT22;50545;56.064;26.178;2022-07-25T11:45:31;23.90;56.50
64226;DHT22;50545;56.064;26.178;2022-07-25T11:48:10;24.10;52.20
64226;DHT22;50545;56.064;26.178;2022-07-25T11:50:42;24.30;54.10
64226;DHT22;50545;56.064;26.178;2022-07-25T11:53:12;24.50;52.30
64226;DHT22;50545;56.064;26.178;2022-07-25T11:55:43;24.80;53.60
64226;DHT22;50545;56.064;26.178;2022-07-25T11:58:12;25.00;50.80
64226;DHT22;50545;56.064;26.178;2022-07-25T12:00:42;25.10;49.00
64226;DHT22;50545;56.064;26.178;2022-07-25T12:03:12;25.20;52.50
64226;DHT22;50545;56.064;26.178;2022-07-25T12:05:47;25.20;47.90
64226;DHT22;50545;56.064;26.178;2022-07-25T12:08:19;25.20;49.30
64226;DHT22;50545;56.064;26.178;2022-07-25T12:10:47;25.30;48.20
64226;DHT22;50545;56.064;26.178;2022-07-25T12:13:29;25.30;53.10
64226;DHT22;50545;56.064;26.178;2022-07-25T12:15:58;25.50;54.30
64226;DHT22;50545;56.064;26.178;2022-07-25T12:18:26;25.50;49.50
64226;DHT22;50545;56.064;26.178;2022-07-25T12:20:53;25.70;51.20
64226;DHT22;50545;56.064;26.178;2022-07-25T12:23:21;25.80;47.00
64226;DHT22;50545;56.064;26.178;2022-07-25T12:25:49;25.90;49.90
64226;DHT22;50545;56.064;26.178;2022-07-25T12:28:16;26.20;55.40
64226;DHT22;50545;56.064;26.178;2022-07-25T12:30:45;26.10;51.30
64226;DHT22;50545;56.064;26.178;2022-07-25T12:33:17;25.80;48.30
64226;DHT22;50545;56.064;26.178;2022-07-25T12:35:44;25.40;50.20
64226;DHT22;50545;56.064;26.178;2022-07-25T12:38:11;25.10;50.80
64226;DHT22;50545;56.064;26.178;2022-07-25T12:40:40;25.10;50.40
64226;DHT22;50545;56.064;26.178;2022-07-25T12:43:07;25.30;48.00
64226;DHT22;50545;56.064;26.178;2022-07-25T12:45:35;25.40;51.90
64226;DHT22;50545;56.064;26.178;2022-07-25T12:48:05;25.50;50.60
64226;DHT22;50545;56.064;26.178;2022-07-25T12:50:33;26.00;53.20
64226;DHT22;50545;56.064;26.178;2022-07-25T12:53:00;26.00;44.90
64226;DHT22;50545;56.064;26.178;2022-07-25T12:55:28;26.10;49.30
64226;DHT22;50545;56.064;26.178;2022-07-25T12:57:55;26.30;47.10
64226;DHT22;50545;56.064;26.178;2022-07-25T13:00:23;26.60;48.50
64226;DHT22;50545;56.064;26.178;2022-07-25T13:02:51;26.80;47.20
64226;DHT22;50545;56.064;26.178;2022-07-25T13:05:22;26.90;46.90
64226;DHT22;50545;56.064;26.178;2022-07-25T13:07:50;27.00;44.40
64226;DHT22;50545;56.064;26.178;2022-07-25T13:10:19;27.10;45.20
64226;DHT22;50545;56.064;26.178;2022-07-25T13:12:46;27.40;44.00
64226;DHT22;50545;56.064;26.178;2022-07-25T13:15:14;27.80;43.60
64226;DHT22;50545;56.064;26.178;2022-07-25T13:17:44;27.70;41.50
64226;DHT22;50545;56.064;26.178;2022-07-25T13:20:11;27.70;44.30
64226;DHT22;50545;56.064;26.178;2022-07-25T13:22:38;27.50;41.40
64226;DHT22;50545;56.064;26.178;2022-07-25T13:25:06;27.40;45.70
64226;DHT22;50545;56.064;26.178;2022-07-25T13:27:33;27.70;43.30
64226;DHT22;50545;56.064;26.178;2022-07-25T13:30:01;27.80;43.20
64226;DHT22;50545;56.064;26.178;2022-07-25T13:32:28;27.90;45.00
64226;DHT22;50545;56.064;26.178;2022-07-25T13:34:57;28.00;42.10
64226;DHT22;50545;56.064;26.178;2022-07-25T13:37:25;27.90;44.90
64226;DHT22;50545;56.064;26.178;2022-07-25T13:39:52;27.50;44.30
64226;DHT22;50545;56.064;26.178;2022-07-25T13:42:19;26.90;44.80
64226;DHT22;50545;56.064;26.178;2022-07-25T13:44:47;26.70;45.90
64226;DHT22;50545;56.064;26.178;2022-07-25T13:47:14;26.90;46.50
64226;DHT22;50545;56.064;26.178;2022-07-25T13:49:42;27.30;46.90
64226;DHT22;50545;56.064;26.178;2022-07-25T13:52:09;27.40;49.10
64226;DHT22;50545;56.064;26.178;2022-07-25T13:54:36;27.80;49.10
64226;DHT22;50545;56.064;26.178;2022-07-25T13:57:04;28.40;47.60
64226;DHT22;50545;56.064;26.178;2022-07-25T13:59:31;28.80;41.90
64226;DHT22;50545;56.064;26.178;2022-07-25T14:01:58;28.90;43.30
64226;DHT22;50545;56.064;26.178;2022-07-25T14:04:26;28.90;42.60
64226;DHT22;50545;56.064;26.178;2022-07-25T14:06:53;29.00;43.50
64226;DHT22;50545;56.064;26.178;2022-07-25T14:09:21;29.30;43.90
64226;DHT22;50545;56.064;26.178;2022-07-25T14:11:48;29.50;43.70
64226;DHT22;50545;56.064;26.178;2022-07-25T14:14:16;29.70;42.70
64226;DHT22;50545;56.064;26.178;2022-07-25T14:16:43;29.70;40.80
64226;DHT22;50545;56.064;26.178;2022-07-25T14:19:11;29.40;40.60
64226;DHT22;50545;56.064;26.178;2022-07-25T14:21:38;29.40;43.20
64226;DHT22;50545;56.064;26.178;2022-07-25T14:24:06;29.50;41.50
64226;DHT22;50545;56.064;26.178;2022-07-25T14:26:33;29.30;41.60
64226;DHT22;50545;56.064;26.178;2022-07-25T14:29:01;29.20;41.60
64226;DHT22;50545;56.064;26.178;2022-07-25T14:31:29;29.20;43.00
64226;DHT22;50545;56.064;26.178;2022-07-25T14:33:57;29.00;43.10
64226;DHT22;50545;56.064;26.178;2022-07-25T14:36:25;28.80;42.60
64226;DHT22;50545;56.064;26.178;2022-07-25T14:38:52;28.60;46.90
64226;DHT22;50545;56.064;26.178;2022-07-25T14:41:19;28.80;46.50
64226;DHT22;50545;56.064;26.178;2022-07-25T14:43:46;29.30;45.00
64226;DHT22;50545;56.064;26.178;2022-07-25T14:46:14;29.80;42.70
64226;DHT22;50545;56.064;26.178;2022-07-25T14:48:42;29.70;42.30
64226;DHT22;50545;56.064;26.178;2022-07-25T14:51:09;29.60;41.10
64226;DHT22;50545;56.064;26.178;2022-07-25T14:53:37;29.50;41.20
64226;DHT22;50545;56.064;26.178;2022-07-25T14:56:05;29.60;41.40
64226;DHT22;50545;56.064;26.178;2022-07-25T14:58:32;29.60;40.90
64226;DHT22;50545;56.064;26.178;2022-07-25T15:01:00;29.50;42.10
64226;DHT22;50545;56.064;26.178;2022-07-25T15:03:28;28.70;40.90
64226;DHT22;50545;56.064;26.178;2022-07-25T15:05:55;27.90;44.10
64226;DHT22;50545;56.064;26.178;2022-07-25T15:08:23;27.00;45.00
64226;DHT22;50545;56.064;26.178;2022-07-25T15:10:50;26.80;47.60
64226;DHT22;50545;56.064;26.178;2022-07-25T15:13:17;27.30;46.80
64226;DHT22;50545;56.064;26.178;2022-07-25T15:16:01;28.00;47.60
64226;DHT22;50545;56.064;26.178;2022-07-25T15:18:29;28.60;43.70
64226;DHT22;50545;56.064;26.178;2022-07-25T15:20:57;29.10;43.10
64226;DHT22;50545;56.064;26.178;2022-07-25T15:23:24;29.30;40.10
64226;DHT22;50545;56.064;26.178;2022-07-25T15:25:56;29.30;43.30
64226;DHT22;50545;56.064;26.178;2022-07-25T15:28:35;29.60;42.60
64226;DHT22;50545;56.064;26.178;2022-07-25T15:31:03;29.30;41.10
64226;DHT22;50545;56.064;26.178;2022-07-25T15:33:31;29.30;43.00
64226;DHT22;50545;56.064;26.178;2022-07-25T15:35:58;29.40;43.40
64226;DHT22;50545;56.064;26.178;2022-07-25T15:38:26;29.70;41.40